Yong An 1 — 3FLS5 — position and weather

sailwx.info

Track history (hours):
 
Tides and Currents Weather Stations Pressure Air Temp Water Temp Dewpoint Dewpoint Depression Visibility Wind Speed Wind Dir Waves Ship Positions

Yong An 1

Last reported at 2017-Oct-16 04:39 UTC. Time now 2017-Oct-19 05:45 UTC.
Position N 31°30' W 015°07'.

Length 228 m; draft 12.5 m.

Type: Cargo ship. MMSI: 374092000.

Date/timePositionNaut miles runAvg speedWind from/ knotsBaromVisibWave heightAir tempDewpointWater temp
2017-Oct-16 04:39N 31°30' W 015°07'911.3
2017-Oct-16 03:51N 31°21' W 015°09'411.5
2017-Oct-16 03:31N 31°17' W 015°09'611.4
2017-Oct-16 03:00N 31°12' W 015°10'811.6
2017-Oct-16 02:19N 31°04' W 015°11'511.9
2017-Oct-16 01:53N 30°59' W 015°13'411.8
2017-Oct-16 01:30N 30°54' W 015°13'611.7
2017-Oct-16 01:00N 30°48' W 015°14'611.7
2017-Oct-16 00:29N 30°42' W 015°15'911.9
2017-Oct-15 23:42N 30°33' W 015°16'212.1
2017-Oct-15 23:30N 30°31' W 015°17'612.1
2017-Oct-15 23:00N 30°25' W 015°18'612.1
2017-Oct-15 22:30N 30°19' W 015°19'611.8
2017-Oct-15 22:00N 30°13' W 015°20'611.9
2017-Oct-15 21:30N 30°07' W 015°21'612.1
2017-Oct-15 21:00N 30°01' W 015°22'612.1
2017-Oct-15 20:30N 29°55' W 015°22'612.1
2017-Oct-15 20:00N 29°49' W 015°24'611.9
2017-Oct-15 19:30N 29°43' W 015°25'611.8
2017-Oct-15 19:00N 29°37' W 015°26'611.8
2017-Oct-15 18:30N 29°32' W 015°27'612.0
2017-Oct-15 18:00N 29°26' W 015°27'612.1
2017-Oct-15 17:30N 29°20' W 015°28'612.3
2017-Oct-15 17:00N 29°14' W 015°30'612.4
2017-Oct-15 16:30N 29°07' W 015°31'612.5
2017-Oct-15 16:00N 29°01' W 015°32'612.6
2017-Oct-15 15:30N 28°55' W 015°33'612.4
2017-Oct-15 15:00N 28°49' W 015°33'1212.0
2017-Oct-15 14:00N 28°37' W 015°37'612.7
2017-Oct-15 13:30N 28°33' W 015°42'612.7
2017-Oct-15 13:00N 28°28' W 015°47'612.5
2017-Oct-15 12:30N 28°23' W 015°52'612.3
2017-Oct-15 12:00N 28°18' W 015°56'1212.5
2017-Oct-15 11:01N 28°09' W 016°05'112.7
2017-Oct-15 10:58N 28°09' W 016°06'612.6
2017-Oct-15 10:28N 28°04' W 016°10'612.7
2017-Oct-15 09:57N 27°59' W 016°15'612.6
2017-Oct-15 09:28N 27°53' W 016°19'613.0
2017-Oct-15 09:00N 27°48' W 016°20'812.9
2017-Oct-15 08:22N 27°39' W 016°22'812.9
2017-Oct-15 07:43N 27°31' W 016°24'312.9
2017-Oct-15 07:30N 27°28' W 016°24'712.7
2017-Oct-15 06:58N 27°22' W 016°26'  
Track history (hours):
 
Tides and Currents Weather Stations Pressure Air Temp Water Temp Dewpoint Dewpoint Depression Visibility Wind Speed Wind Dir Waves Ship Positions

Yong An 1

Last reported at 2017-Oct-16 04:39 UTC. Time now 2017-Oct-19 05:45 UTC.
Position N 31°30' W 015°07'.

Length 228 m; draft 12.5 m.

Type: Cargo ship. MMSI: 374092000.

Date/timePositionNaut miles runAvg speedWind from/ knotsBaromVisibWave heightAir tempDewpointWater temp
2017-Oct-16 04:39N 31°30' W 015°07'911.3
2017-Oct-16 03:51N 31°21' W 015°09'411.5
2017-Oct-16 03:31N 31°17' W 015°09'611.4
2017-Oct-16 03:00N 31°12' W 015°10'811.6
2017-Oct-16 02:19N 31°04' W 015°11'511.9
2017-Oct-16 01:53N 30°59' W 015°13'411.8
2017-Oct-16 01:30N 30°54' W 015°13'611.7
2017-Oct-16 01:00N 30°48' W 015°14'611.7
2017-Oct-16 00:29N 30°42' W 015°15'911.9
2017-Oct-15 23:42N 30°33' W 015°16'212.1
2017-Oct-15 23:30N 30°31' W 015°17'612.1
2017-Oct-15 23:00N 30°25' W 015°18'612.1
2017-Oct-15 22:30N 30°19' W 015°19'611.8
2017-Oct-15 22:00N 30°13' W 015°20'611.9
2017-Oct-15 21:30N 30°07' W 015°21'612.1
2017-Oct-15 21:00N 30°01' W 015°22'612.1
2017-Oct-15 20:30N 29°55' W 015°22'612.1
2017-Oct-15 20:00N 29°49' W 015°24'611.9
2017-Oct-15 19:30N 29°43' W 015°25'611.8
2017-Oct-15 19:00N 29°37' W 015°26'611.8
2017-Oct-15 18:30N 29°32' W 015°27'612.0
2017-Oct-15 18:00N 29°26' W 015°27'612.1
2017-Oct-15 17:30N 29°20' W 015°28'612.3
2017-Oct-15 17:00N 29°14' W 015°30'612.4
2017-Oct-15 16:30N 29°07' W 015°31'612.5
2017-Oct-15 16:00N 29°01' W 015°32'612.6
2017-Oct-15 15:30N 28°55' W 015°33'612.4
2017-Oct-15 15:00N 28°49' W 015°33'1212.0
2017-Oct-15 14:00N 28°37' W 015°37'612.7
2017-Oct-15 13:30N 28°33' W 015°42'612.7
2017-Oct-15 13:00N 28°28' W 015°47'612.5
2017-Oct-15 12:30N 28°23' W 015°52'612.3
2017-Oct-15 12:00N 28°18' W 015°56'1212.5
2017-Oct-15 11:01N 28°09' W 016°05'112.7
2017-Oct-15 10:58N 28°09' W 016°06'612.6
2017-Oct-15 10:28N 28°04' W 016°10'612.7
2017-Oct-15 09:57N 27°59' W 016°15'612.6
2017-Oct-15 09:28N 27°53' W 016°19'613.0
2017-Oct-15 09:00N 27°48' W 016°20'812.9
2017-Oct-15 08:22N 27°39' W 016°22'812.9
2017-Oct-15 07:43N 27°31' W 016°24'312.9
2017-Oct-15 07:30N 27°28' W 016°24'712.7
2017-Oct-15 06:58N 27°22' W 016°26'  

Dump ship's entire track history